createdAt,value
2019-02-16T00:00:23.010Z,72
2019-02-16T00:01:25.112Z,73
2019-02-16T00:02:27.167Z,73
2019-02-16T00:03:29.198Z,72
2019-02-16T00:04:31.243Z,72
2019-02-16T00:05:33.283Z,72
2019-02-16T00:06:35.318Z,73
2019-02-16T00:07:37.363Z,72
2019-02-16T00:08:39.397Z,72
2019-02-16T00:09:41.442Z,72
2019-02-16T00:10:43.472Z,72
2019-02-16T00:11:45.517Z,72
2019-02-16T00:12:47.570Z,72
2019-02-16T00:13:49.857Z,72
2019-02-16T00:14:51.899Z,72
2019-02-16T00:15:53.944Z,72
2019-02-16T00:16:55.990Z,72
2019-02-16T00:17:58.063Z,72
2019-02-16T00:19:00.088Z,72
2019-02-16T00:20:02.131Z,72
2019-02-16T00:21:05.201Z,72
2019-02-16T00:22:07.241Z,72
2019-02-16T00:23:09.283Z,72
2019-02-16T00:24:11.343Z,72
2019-02-16T00:25:13.383Z,72
2019-02-16T00:26:15.415Z,72
2019-02-16T00:27:17.522Z,72
2019-02-16T00:28:19.570Z,72
2019-02-16T00:29:21.591Z,72
2019-02-16T00:30:24.030Z,72
2019-02-16T00:31:26.363Z,72
2019-02-16T00:32:28.417Z,72
2019-02-16T00:33:30.449Z,73
2019-02-16T00:34:32.510Z,73
2019-02-16T00:35:34.539Z,73
2019-02-16T00:36:36.583Z,73
2019-02-16T00:37:38.639Z,73
2019-02-16T00:38:40.680Z,73
2019-02-16T00:39:42.732Z,73
2019-02-16T00:40:44.791Z,74
2019-02-16T00:41:46.827Z,74
2019-02-16T00:42:48.904Z,73
2019-02-16T00:43:50.949Z,73
2019-02-16T00:44:53.631Z,73
2019-02-16T00:45:55.671Z,72
2019-02-16T00:46:57.714Z,72
2019-02-16T00:47:59.757Z,72
2019-02-16T00:49:01.842Z,72
2019-02-16T00:50:03.904Z,73
2019-02-16T00:51:14.837Z,73
2019-02-16T00:52:16.862Z,72
2019-02-16T00:53:18.902Z,73
2019-02-16T00:54:20.933Z,73
2019-02-16T00:55:23.350Z,72
2019-02-16T00:56:25.381Z,72
2019-02-16T00:57:27.425Z,72
2019-02-16T00:58:29.444Z,72
2019-02-16T00:59:31.490Z,72
2019-02-16T01:00:33.539Z,72
2019-02-16T01:01:35.563Z,73
2019-02-16T01:02:37.661Z,73
2019-02-16T01:03:39.984Z,73
2019-02-16T01:04:42.015Z,73
2019-02-16T01:05:44.083Z,73
2019-02-16T01:06:46.138Z,73
2019-02-16T01:07:48.281Z,73
2019-02-16T01:08:50.319Z,73
2019-02-16T01:09:52.354Z,74
2019-02-16T01:10:54.650Z,74
2019-02-16T01:11:56.681Z,74
2019-02-16T01:12:58.705Z,74
2019-02-16T01:14:01.034Z,74
2019-02-16T01:15:03.349Z,74
2019-02-16T01:16:05.377Z,74
2019-02-16T01:17:07.427Z,74
2019-02-16T01:18:10.139Z,74
2019-02-16T01:19:12.182Z,74
2019-02-16T01:20:14.223Z,74
2019-02-16T01:21:23.866Z,74
2019-02-16T01:22:25.890Z,74
2019-02-16T01:23:27.944Z,74
2019-02-16T01:24:29.982Z,74
2019-02-16T01:25:32.027Z,75
2019-02-16T01:26:34.117Z,75
2019-02-16T01:27:36.153Z,75
2019-02-16T01:28:38.184Z,75
2019-02-16T01:29:40.215Z,75
2019-02-16T01:30:42.682Z,75
2019-02-16T01:31:44.760Z,75
2019-02-16T01:32:46.853Z,75
2019-02-16T01:33:49.281Z,75
2019-02-16T01:34:51.353Z,75
2019-02-16T01:35:53.447Z,75
2019-02-16T01:36:55.535Z,75
2019-02-16T01:37:57.919Z,75
2019-02-16T01:39:00.009Z,75
2019-02-16T01:40:02.496Z,75
2019-02-16T01:41:04.960Z,75
2019-02-16T01:42:07.058Z,74
2019-02-16T01:43:09.528Z,74
2019-02-16T01:44:11.611Z,73
2019-02-16T01:45:13.691Z,73
2019-02-16T01:46:15.799Z,73
2019-02-16T01:47:17.848Z,73
2019-02-16T01:48:19.884Z,73
2019-02-16T01:49:21.980Z,73
2019-02-16T01:50:24.011Z,73
2019-02-16T01:51:33.281Z,74
2019-02-16T01:52:35.374Z,74
2019-02-16T01:53:37.478Z,73
2019-02-16T01:54:39.574Z,73
2019-02-16T01:55:41.650Z,73
2019-02-16T01:56:43.752Z,73
2019-02-16T01:57:46.123Z,74
2019-02-16T01:58:48.846Z,74
2019-02-16T01:59:51.027Z,74
2019-02-16T02:00:53.105Z,74
2019-02-16T02:01:55.192Z,74
2019-02-16T02:02:57.277Z,74
2019-02-16T02:03:59.658Z,74
2019-02-16T02:05:02.137Z,74
2019-02-16T02:06:04.234Z,73
2019-02-16T02:07:06.720Z,73
2019-02-16T02:08:09.110Z,73
2019-02-16T02:09:13.157Z,73
2019-02-16T02:10:15.255Z,73
2019-02-16T02:11:17.336Z,73
2019-02-16T02:12:19.428Z,73
2019-02-16T02:13:21.538Z,73
2019-02-16T02:14:23.903Z,73
2019-02-16T02:15:26.005Z,73
2019-02-16T02:16:28.092Z,73
2019-02-16T02:17:30.178Z,72
2019-02-16T02:18:32.263Z,72
2019-02-16T02:19:34.377Z,73
2019-02-16T02:20:36.450Z,73
2019-02-16T02:21:42.592Z,73
2019-02-16T02:22:44.696Z,73
2019-02-16T02:23:46.781Z,73
2019-02-16T02:24:48.890Z,73
2019-02-16T02:25:50.980Z,72
2019-02-16T02:26:53.064Z,73
2019-02-16T02:27:55.141Z,73
2019-02-16T02:28:57.224Z,72
2019-02-16T02:29:59.318Z,72
2019-02-16T02:31:01.413Z,72
2019-02-16T02:32:03.499Z,72
2019-02-16T02:33:06.290Z,72
2019-02-16T02:34:08.373Z,72
2019-02-16T02:35:10.488Z,72
2019-02-16T02:36:12.588Z,73
2019-02-16T02:37:14.978Z,73
2019-02-16T02:38:17.455Z,73
2019-02-16T02:39:19.860Z,73
2019-02-16T02:40:21.957Z,73
2019-02-16T02:41:24.026Z,73
2019-02-16T02:42:26.118Z,73
2019-02-16T02:43:28.500Z,73
2019-02-16T02:44:30.579Z,73
2019-02-16T02:45:32.670Z,73
2019-02-16T02:46:35.156Z,73
2019-02-16T02:47:37.244Z,73
2019-02-16T02:48:39.908Z,73
2019-02-16T02:49:42.138Z,73
2019-02-16T02:50:44.219Z,72
2019-02-16T02:51:53.746Z,72
2019-02-16T02:52:57.596Z,72
2019-02-16T02:53:59.973Z,72
2019-02-16T02:55:02.470Z,72
2019-02-16T02:56:04.579Z,72
2019-02-16T02:57:06.966Z,72
2019-02-16T02:58:09.399Z,72
2019-02-16T02:59:11.763Z,72
2019-02-16T03:00:13.857Z,72
2019-02-16T03:01:15.986Z,72
2019-02-16T03:02:18.099Z,72
2019-02-16T03:03:20.176Z,72
2019-02-16T03:04:22.917Z,72
2019-02-16T03:05:25.399Z,72
2019-02-16T03:06:28.152Z,72
2019-02-16T03:07:30.240Z,72
2019-02-16T03:08:32.388Z,72
2019-02-16T03:09:35.177Z,72
2019-02-16T03:10:37.927Z,72
2019-02-16T03:11:40.033Z,72
2019-02-16T03:12:42.116Z,72
2019-02-16T03:13:44.209Z,72
2019-02-16T03:14:46.318Z,72
2019-02-16T03:15:48.813Z,71
2019-02-16T03:16:51.321Z,71
2019-02-16T03:17:53.472Z,71
2019-02-16T03:18:55.866Z,71
2019-02-16T03:19:57.955Z,71
2019-02-16T03:21:00.059Z,71
2019-02-16T03:22:04.591Z,72
2019-02-16T03:23:06.998Z,71
2019-02-16T03:24:09.389Z,72
2019-02-16T03:25:11.498Z,72
2019-02-16T03:26:13.893Z,72
2019-02-16T03:27:16.003Z,72
2019-02-16T03:28:18.108Z,72
2019-02-16T03:29:20.218Z,72
2019-02-16T03:30:23.195Z,72
2019-02-16T03:31:26.330Z,72
2019-02-16T03:32:29.141Z,72
2019-02-16T03:33:31.268Z,72
2019-02-16T03:34:33.675Z,72
2019-02-16T03:35:36.153Z,72
2019-02-16T03:36:41.073Z,72
2019-02-16T03:37:43.167Z,72
2019-02-16T03:38:45.250Z,72
2019-02-16T03:39:47.371Z,72
2019-02-16T03:40:49.479Z,72
2019-02-16T03:41:51.574Z,72
2019-02-16T03:42:53.660Z,72
2019-02-16T03:43:55.827Z,72
2019-02-16T03:44:58.195Z,72
2019-02-16T03:46:00.284Z,73
2019-02-16T03:47:02.383Z,73
2019-02-16T03:48:04.495Z,73
2019-02-16T03:49:06.580Z,73
2019-02-16T03:50:08.956Z,73
2019-02-16T03:51:11.068Z,73
2019-02-16T03:52:15.122Z,73
2019-02-16T03:53:17.196Z,73
2019-02-16T03:54:19.580Z,73
2019-02-16T03:55:22.281Z,73
2019-02-16T03:56:24.371Z,73
2019-02-16T03:57:26.767Z,73
2019-02-16T03:58:29.244Z,73
2019-02-16T03:59:31.329Z,73
2019-02-16T04:00:34.134Z,73
2019-02-16T04:01:36.242Z,73
2019-02-16T04:02:38.321Z,74
2019-02-16T04:03:40.436Z,74
2019-02-16T04:04:42.809Z,74
2019-02-16T04:05:44.903Z,74
2019-02-16T04:06:47.008Z,74
2019-02-16T04:07:49.720Z,73
2019-02-16T04:08:52.088Z,74
2019-02-16T04:09:54.541Z,74
2019-02-16T04:10:57.046Z,74
2019-02-16T04:11:59.444Z,74
2019-02-16T04:13:01.554Z,74
2019-02-16T04:14:03.924Z,74
2019-02-16T04:15:06.008Z,74
2019-02-16T04:16:08.354Z,75
2019-02-16T04:17:10.428Z,75
2019-02-16T04:18:12.486Z,75
2019-02-16T04:19:14.929Z,75
2019-02-16T04:20:17.281Z,75
2019-02-16T04:21:19.340Z,75
2019-02-16T04:22:25.805Z,75
2019-02-16T04:23:28.256Z,75
2019-02-16T04:24:31.051Z,75
2019-02-16T04:25:33.392Z,76
2019-02-16T04:26:35.458Z,76
2019-02-16T04:27:37.510Z,76
2019-02-16T04:28:39.817Z,76
2019-02-16T04:29:42.232Z,76
2019-02-16T04:30:44.284Z,76
2019-02-16T04:31:46.312Z,76
2019-02-16T04:32:48.339Z,76
2019-02-16T04:33:50.417Z,76
2019-02-16T04:34:52.836Z,76
2019-02-16T04:35:54.877Z,76
2019-02-16T04:36:56.922Z,76
2019-02-16T04:37:59.322Z,76
2019-02-16T04:39:01.382Z,76
2019-02-16T04:40:03.423Z,76
2019-02-16T04:41:05.861Z,76
2019-02-16T04:42:07.887Z,76
2019-02-16T04:43:10.013Z,76
2019-02-16T04:44:12.326Z,76
2019-02-16T04:45:14.359Z,76
2019-02-16T04:46:16.677Z,76
2019-02-16T04:47:18.722Z,76
2019-02-16T04:48:20.753Z,75
2019-02-16T04:49:23.071Z,75
2019-02-16T04:50:25.118Z,75
2019-02-16T04:51:27.132Z,76
2019-02-16T04:52:36.361Z,76
2019-02-16T04:53:38.402Z,76
2019-02-16T04:54:41.272Z,76
2019-02-16T04:55:43.308Z,75
2019-02-16T04:56:45.632Z,75
2019-02-16T04:57:47.942Z,75
2019-02-16T04:58:49.982Z,75
2019-02-16T04:59:52.023Z,75
2019-02-16T05:00:54.466Z,75
2019-02-16T05:01:56.897Z,75
2019-02-16T05:02:58.923Z,75
2019-02-16T05:04:01.250Z,75
2019-02-16T05:05:03.282Z,75
2019-02-16T05:06:05.327Z,75
2019-02-16T05:07:07.375Z,75
2019-02-16T05:08:09.414Z,75
2019-02-16T05:09:11.736Z,76
2019-02-16T05:10:13.774Z,76
2019-02-16T05:11:15.799Z,76
2019-02-16T05:12:18.168Z,76
2019-02-16T05:13:20.197Z,76
2019-02-16T05:14:22.237Z,76
2019-02-16T05:15:24.253Z,76
2019-02-16T05:16:26.605Z,76
2019-02-16T05:17:28.629Z,76
2019-02-16T05:18:30.657Z,76
2019-02-16T05:19:32.979Z,76
2019-02-16T05:20:34.998Z,76
2019-02-16T05:21:37.064Z,76
2019-02-16T05:22:46.042Z,76
2019-02-16T05:23:48.473Z,76
2019-02-16T05:24:50.881Z,76
2019-02-16T05:25:52.923Z,76
2019-02-16T05:26:55.254Z,76
2019-02-16T05:27:57.599Z,76
2019-02-16T05:28:59.634Z,77
2019-02-16T05:30:02.511Z,77
2019-02-16T05:31:04.925Z,77
2019-02-16T05:32:07.007Z,77
2019-02-16T05:33:09.337Z,77
2019-02-16T05:34:11.469Z,77
2019-02-16T05:35:13.902Z,77
2019-02-16T05:36:16.316Z,77
2019-02-16T05:37:18.729Z,77
2019-02-16T05:38:20.757Z,77
2019-02-16T05:39:23.490Z,77
2019-02-16T05:40:25.904Z,77
2019-02-16T05:41:27.933Z,78
2019-02-16T05:42:29.970Z,78
2019-02-16T05:43:32.013Z,78
2019-02-16T05:44:34.340Z,78
2019-02-16T05:45:36.365Z,77
2019-02-16T05:46:38.387Z,78
2019-02-16T05:47:40.407Z,78
2019-02-16T05:48:42.751Z,78
2019-02-16T05:49:45.051Z,78
2019-02-16T05:50:47.388Z,77
2019-02-16T05:51:49.822Z,77
2019-02-16T05:52:55.737Z,77
2019-02-16T05:53:58.164Z,77
2019-02-16T05:55:00.687Z,77
2019-02-16T05:56:02.733Z,77
2019-02-16T05:57:05.053Z,77
2019-02-16T05:58:07.674Z,77
2019-02-16T05:59:09.706Z,77
2019-02-16T06:00:11.748Z,77
2019-02-16T06:01:14.091Z,77
2019-02-16T06:02:16.117Z,78
2019-02-16T06:03:18.539Z,78
2019-02-16T06:04:20.584Z,78
2019-02-16T06:05:22.617Z,78
2019-02-16T06:06:24.636Z,78
2019-02-16T06:07:26.684Z,78
2019-02-16T06:08:29.015Z,78
2019-02-16T06:09:31.047Z,78
2019-02-16T06:10:33.673Z,78
2019-02-16T06:11:35.710Z,78
2019-02-16T06:12:38.380Z,78
2019-02-16T06:13:40.428Z,78
2019-02-16T06:14:42.511Z,78
2019-02-16T06:15:44.824Z,78
2019-02-16T06:16:47.351Z,78
2019-02-16T06:17:49.384Z,78
2019-02-16T06:18:51.416Z,77
2019-02-16T06:19:53.441Z,77
2019-02-16T06:20:55.512Z,77
2019-02-16T06:21:57.550Z,77
2019-02-16T06:23:05.616Z,78
2019-02-16T06:24:07.652Z,78
2019-02-16T06:25:10.063Z,78
2019-02-16T06:26:12.635Z,78
2019-02-16T06:27:15.059Z,78
2019-02-16T06:28:17.090Z,78
2019-02-16T06:29:19.136Z,78
2019-02-16T06:30:21.156Z,78
2019-02-16T06:31:23.218Z,78
2019-02-16T06:32:25.244Z,78
2019-02-16T06:33:27.275Z,78
2019-02-16T06:34:29.700Z,78
2019-02-16T06:35:34.339Z,78
2019-02-16T06:36:36.754Z,78
2019-02-16T06:37:39.076Z,78
2019-02-16T06:38:41.685Z,78
2019-02-16T06:39:43.706Z,78
2019-02-16T06:40:45.742Z,78
2019-02-16T06:41:48.178Z,78
2019-02-16T06:42:50.219Z,78
2019-02-16T06:43:52.932Z,78
2019-02-16T06:44:54.975Z,78
2019-02-16T06:45:56.994Z,77
2019-02-16T06:46:59.038Z,77
2019-02-16T06:48:01.065Z,77
2019-02-16T06:49:03.088Z,77
2019-02-16T06:50:05.120Z,77
2019-02-16T06:51:07.139Z,77
2019-02-16T06:52:09.175Z,77
2019-02-16T06:53:14.710Z,76
2019-02-16T06:54:16.748Z,76
2019-02-16T06:55:18.762Z,76
2019-02-16T06:56:20.800Z,76
2019-02-16T06:57:22.869Z,76
2019-02-16T06:58:24.889Z,76
2019-02-16T06:59:26.928Z,76
2019-02-16T07:00:28.971Z,76
2019-02-16T07:01:31.009Z,77
2019-02-16T07:02:35.369Z,76
2019-02-16T07:03:37.410Z,75
2019-02-16T07:04:39.443Z,75
2019-02-16T07:05:41.475Z,75
2019-02-16T07:06:43.864Z,75
2019-02-16T07:07:46.166Z,75
2019-02-16T07:08:48.206Z,75
2019-02-16T07:09:50.527Z,75
2019-02-16T07:10:52.551Z,75
2019-02-16T07:11:54.576Z,75
2019-02-16T07:12:56.617Z,75
2019-02-16T07:13:59.023Z,74
2019-02-16T07:15:01.209Z,76
2019-02-16T07:16:03.244Z,74
2019-02-16T07:17:05.263Z,75
2019-02-16T07:18:07.292Z,74
2019-02-16T07:19:09.327Z,75
2019-02-16T07:20:11.635Z,74
2019-02-16T07:21:13.673Z,74
2019-02-16T07:22:15.713Z,74
2019-02-16T07:23:23.843Z,74
2019-02-16T07:24:26.286Z,73
2019-02-16T07:25:28.316Z,73
2019-02-16T07:26:30.349Z,73
2019-02-16T07:27:33.034Z,73
2019-02-16T07:28:35.079Z,72
2019-02-16T07:29:37.098Z,71
2019-02-16T07:30:39.129Z,71
2019-02-16T07:31:41.201Z,71
2019-02-16T07:32:43.231Z,70
2019-02-16T07:33:45.273Z,70
2019-02-16T07:34:47.309Z,69
2019-02-16T07:35:49.630Z,68
2019-02-16T07:36:51.694Z,69
2019-02-16T07:37:55.023Z,68
2019-02-16T07:38:57.337Z,67
2019-02-16T07:39:59.376Z,67
2019-02-16T07:41:01.393Z,66
2019-02-16T07:42:03.444Z,66
2019-02-16T07:43:05.474Z,66
2019-02-16T07:44:07.832Z,66
2019-02-16T07:45:09.861Z,65
2019-02-16T07:46:11.915Z,65
2019-02-16T07:47:13.940Z,65
2019-02-16T07:48:16.264Z,66
2019-02-16T07:49:18.579Z,64
2019-02-16T07:50:20.616Z,63
2019-02-16T07:51:22.650Z,64
2019-02-16T07:52:24.968Z,63
2019-02-16T07:53:32.790Z,62
2019-02-16T07:54:34.823Z,63
2019-02-16T07:55:37.243Z,62
2019-02-16T07:56:39.264Z,62
2019-02-16T07:57:41.301Z,62
2019-02-16T07:58:43.631Z,61
2019-02-16T07:59:45.938Z,60
2019-02-16T08:00:48.248Z,62
2019-02-16T08:01:50.296Z,61
2019-02-16T08:02:52.313Z,61
2019-02-16T08:03:54.343Z,61
2019-02-16T08:04:56.662Z,60
2019-02-16T08:05:58.691Z,60
2019-02-16T08:07:00.733Z,59
2019-02-16T08:08:02.810Z,60
2019-02-16T08:09:04.891Z,59
2019-02-16T08:10:06.914Z,59
2019-02-16T08:11:08.958Z,59
2019-02-16T08:12:10.986Z,58
2019-02-16T08:13:13.309Z,60
2019-02-16T08:14:15.354Z,59
2019-02-16T08:15:17.383Z,59
2019-02-16T08:16:19.418Z,60
2019-02-16T08:17:21.453Z,59
2019-02-16T08:18:23.874Z,58
2019-02-16T08:19:26.293Z,57
2019-02-16T08:20:28.335Z,56
2019-02-16T08:21:30.376Z,56
2019-02-16T08:22:32.403Z,57
2019-02-16T08:23:41.492Z,57
2019-02-16T08:24:43.527Z,56
2019-02-16T08:25:45.558Z,57
2019-02-16T08:26:47.602Z,58
2019-02-16T08:27:49.628Z,58
2019-02-16T08:28:51.660Z,57
2019-02-16T08:29:53.697Z,57
2019-02-16T08:30:56.011Z,55
2019-02-16T08:31:58.098Z,56
2019-02-16T08:33:00.135Z,55
2019-02-16T08:34:02.172Z,55
2019-02-16T08:35:04.195Z,56
2019-02-16T08:36:06.256Z,54
2019-02-16T08:37:08.587Z,56
2019-02-16T08:38:10.908Z,55
2019-02-16T08:39:12.973Z,56
2019-02-16T08:40:15.003Z,56
2019-02-16T08:41:17.048Z,56
2019-02-16T08:42:19.091Z,54
2019-02-16T08:43:21.145Z,53
2019-02-16T08:44:23.182Z,54
2019-02-16T08:45:25.293Z,54
2019-02-16T08:46:27.334Z,53
2019-02-16T08:47:29.368Z,53
2019-02-16T08:48:31.463Z,53
2019-02-16T08:49:33.508Z,53
2019-02-16T08:50:35.556Z,54
2019-02-16T08:51:37.599Z,52
2019-02-16T08:52:39.629Z,53
2019-02-16T08:53:50.852Z,53
2019-02-16T08:54:52.888Z,53
2019-02-16T08:55:54.925Z,53
2019-02-16T08:56:56.981Z,53
2019-02-16T08:57:59.019Z,51
2019-02-16T08:59:01.726Z,52
2019-02-16T09:00:03.778Z,52
2019-02-16T09:01:06.110Z,51
2019-02-16T09:02:08.142Z,50
2019-02-16T09:03:10.183Z,50
2019-02-16T09:04:12.217Z,49
2019-02-16T09:05:14.275Z,50
2019-02-16T09:06:16.323Z,49
2019-02-16T09:07:18.366Z,48
2019-02-16T09:08:20.398Z,50
2019-02-16T09:09:22.447Z,50
2019-02-16T09:10:24.486Z,50
2019-02-16T09:11:26.544Z,48
2019-02-16T09:12:28.616Z,48
2019-02-16T09:13:31.040Z,49
2019-02-16T09:14:33.088Z,50
2019-02-16T09:15:35.131Z,49
2019-02-16T09:16:39.255Z,49
2019-02-16T09:17:41.673Z,48
2019-02-16T09:18:43.724Z,46
2019-02-16T09:19:45.803Z,48
2019-02-16T09:20:48.119Z,47
2019-02-16T09:21:50.168Z,48
2019-02-16T09:22:52.505Z,46
2019-02-16T09:24:00.495Z,47
2019-02-16T09:25:02.828Z,46
2019-02-16T09:26:04.901Z,46
2019-02-16T09:27:06.950Z,46
2019-02-16T09:28:08.992Z,47
2019-02-16T09:29:11.081Z,46
2019-02-16T09:30:13.144Z,46
2019-02-16T09:31:15.469Z,47
2019-02-16T09:32:17.799Z,48
2019-02-16T09:33:20.216Z,47
2019-02-16T09:34:22.295Z,46
2019-02-16T09:35:24.334Z,46
2019-02-16T09:36:26.377Z,47
2019-02-16T09:37:29.784Z,46
2019-02-16T09:38:31.908Z,47
2019-02-16T09:39:33.962Z,45
2019-02-16T09:40:36.020Z,45
2019-02-16T09:41:38.338Z,45
2019-02-16T09:42:40.678Z,45
2019-02-16T09:43:42.746Z,45
2019-02-16T09:44:44.817Z,45
2019-02-16T09:45:46.870Z,44
2019-02-16T09:46:48.912Z,44
2019-02-16T09:47:50.959Z,45
2019-02-16T09:48:53.396Z,44
2019-02-16T09:49:55.464Z,45
2019-02-16T09:50:57.495Z,46
2019-02-16T09:51:59.606Z,45
2019-02-16T09:53:01.666Z,45
2019-02-16T09:54:09.473Z,44
2019-02-16T09:55:11.522Z,44
2019-02-16T09:56:13.569Z,45
2019-02-16T09:57:15.608Z,46
2019-02-16T09:58:18.478Z,46
2019-02-16T09:59:20.539Z,44
2019-02-16T10:00:22.578Z,45
2019-02-16T10:01:24.640Z,44
2019-02-16T10:02:26.684Z,44
2019-02-16T10:03:29.010Z,44
2019-02-16T10:04:31.339Z,44
2019-02-16T10:05:33.385Z,43
2019-02-16T10:06:35.456Z,42
2019-02-16T10:07:37.502Z,43
2019-02-16T10:08:39.545Z,44
2019-02-16T10:09:41.599Z,43
2019-02-16T10:10:43.925Z,43
2019-02-16T10:11:46.649Z,43
2019-02-16T10:12:48.694Z,44
2019-02-16T10:13:50.747Z,43
2019-02-16T10:14:52.784Z,44
2019-02-16T10:15:54.845Z,43
2019-02-16T10:16:56.885Z,43
2019-02-16T10:17:58.932Z,44
2019-02-16T10:19:01.645Z,43
2019-02-16T10:20:03.709Z,43
2019-02-16T10:21:05.757Z,43
2019-02-16T10:22:07.817Z,43
2019-02-16T10:23:09.883Z,43
2019-02-16T10:24:19.035Z,45
2019-02-16T10:25:21.089Z,44
2019-02-16T10:26:23.142Z,44
2019-02-16T10:27:25.184Z,44
2019-02-16T10:28:27.236Z,42
2019-02-16T10:29:29.290Z,41
2019-02-16T10:30:31.338Z,43
2019-02-16T10:31:33.662Z,42
2019-02-16T10:32:35.757Z,42
2019-02-16T10:33:37.807Z,42
2019-02-16T10:34:40.149Z,42
2019-02-16T10:35:42.207Z,43
2019-02-16T10:36:44.256Z,42
2019-02-16T10:37:46.331Z,42
2019-02-16T10:38:48.397Z,42
2019-02-16T10:39:50.799Z,42
2019-02-16T10:40:52.843Z,42
2019-02-16T10:41:54.897Z,41
2019-02-16T10:42:56.951Z,41
2019-02-16T10:44:01.026Z,41
2019-02-16T10:45:03.369Z,41
2019-02-16T10:46:05.428Z,41
2019-02-16T10:47:07.474Z,42
2019-02-16T10:48:09.543Z,41
2019-02-16T10:49:11.632Z,41
2019-02-16T10:50:13.727Z,41
2019-02-16T10:51:15.832Z,40
2019-02-16T10:52:17.883Z,40
2019-02-16T10:53:19.937Z,41
2019-02-16T10:54:30.454Z,41
2019-02-16T10:55:32.989Z,41
2019-02-16T10:56:35.035Z,40
2019-02-16T10:57:37.390Z,40
2019-02-16T10:58:39.724Z,40
2019-02-16T10:59:41.777Z,42
2019-02-16T11:00:43.841Z,40
2019-02-16T11:01:45.880Z,41
2019-02-16T11:02:48.232Z,41
2019-02-16T11:03:50.292Z,41
2019-02-16T11:04:52.658Z,41
2019-02-16T11:05:54.693Z,41
2019-02-16T11:06:57.103Z,40
2019-02-16T11:07:59.437Z,40
2019-02-16T11:09:01.496Z,40
2019-02-16T11:10:03.846Z,40
2019-02-16T11:11:05.953Z,40
2019-02-16T11:12:08.306Z,41
2019-02-16T11:13:10.680Z,42
2019-02-16T11:14:13.147Z,41
2019-02-16T11:15:15.191Z,41
2019-02-16T11:16:17.262Z,41
2019-02-16T11:17:19.349Z,42
2019-02-16T11:18:21.795Z,41
2019-02-16T11:19:23.924Z,41
2019-02-16T11:20:25.984Z,41
2019-02-16T11:21:28.055Z,41
2019-02-16T11:22:30.140Z,41
2019-02-16T11:23:32.220Z,40
2019-02-16T11:24:37.027Z,42
2019-02-16T11:25:39.124Z,41
2019-02-16T11:26:41.179Z,41
2019-02-16T11:27:43.268Z,42
2019-02-16T11:28:45.383Z,41
2019-02-16T11:29:47.462Z,42
2019-02-16T11:30:49.549Z,41
2019-02-16T11:31:51.649Z,40
2019-02-16T11:32:53.977Z,40
2019-02-16T11:33:56.036Z,40
2019-02-16T11:34:58.088Z,41
2019-02-16T11:36:00.225Z,40
2019-02-16T11:37:02.327Z,41
2019-02-16T11:38:04.764Z,41
2019-02-16T11:39:07.198Z,41
2019-02-16T11:40:09.253Z,40
2019-02-16T11:41:19.995Z,40
2019-02-16T11:42:22.048Z,40
2019-02-16T11:43:24.108Z,40
2019-02-16T11:44:26.461Z,40
2019-02-16T11:45:28.511Z,39
2019-02-16T11:46:30.962Z,40
2019-02-16T11:47:33.009Z,39
2019-02-16T11:48:35.053Z,40
2019-02-16T11:49:37.103Z,41
2019-02-16T11:50:39.154Z,42
2019-02-16T11:51:41.206Z,41
2019-02-16T11:52:43.273Z,41
2019-02-16T11:53:45.347Z,40
2019-02-16T11:54:47.394Z,39
2019-02-16T11:55:49.467Z,41
2019-02-16T11:56:51.797Z,39
2019-02-16T11:57:53.851Z,39
2019-02-16T11:58:55.913Z,40
2019-02-16T11:59:57.973Z,41
2019-02-16T12:01:00.021Z,40
2019-02-16T12:02:02.458Z,40
2019-02-16T12:03:04.901Z,40
2019-02-16T12:04:07.349Z,40
2019-02-16T12:05:09.789Z,41
2019-02-16T12:06:11.838Z,39
2019-02-16T12:07:14.285Z,39
2019-02-16T12:08:16.337Z,39
2019-02-16T12:09:18.411Z,39
2019-02-16T12:10:20.757Z,39
2019-02-16T12:11:22.827Z,38
2019-02-16T12:12:24.862Z,39
2019-02-16T12:13:26.927Z,39
2019-02-16T12:14:28.978Z,38
2019-02-16T12:15:31.042Z,38
2019-02-16T12:16:33.098Z,40
2019-02-16T12:17:35.186Z,39
2019-02-16T12:18:37.620Z,37
2019-02-16T12:19:39.691Z,38
2019-02-16T12:20:41.742Z,38
2019-02-16T12:21:43.789Z,38
2019-02-16T12:22:46.133Z,37
2019-02-16T12:23:48.573Z,38
2019-02-16T12:25:07.260Z,38
2019-02-16T12:26:09.308Z,37
2019-02-16T12:27:11.371Z,37
2019-02-16T12:28:13.790Z,36
2019-02-16T12:29:15.852Z,37
2019-02-16T12:30:17.907Z,37
2019-02-16T12:31:19.959Z,37
2019-02-16T12:32:22.017Z,38
2019-02-16T12:33:24.342Z,37
2019-02-16T12:34:26.508Z,37
2019-02-16T12:35:28.578Z,37
2019-02-16T12:36:30.925Z,38
2019-02-16T12:37:32.976Z,37
2019-02-16T12:38:35.068Z,37
2019-02-16T12:39:37.107Z,37
2019-02-16T12:40:39.197Z,37
2019-02-16T12:41:41.242Z,37
2019-02-16T12:42:43.290Z,37
2019-02-16T12:43:45.354Z,38
2019-02-16T12:44:47.408Z,38
2019-02-16T12:45:52.209Z,37
2019-02-16T12:46:54.275Z,38
2019-02-16T12:47:56.318Z,37
2019-02-16T12:48:58.366Z,37
2019-02-16T12:50:00.495Z,37
2019-02-16T12:51:02.566Z,37
2019-02-16T12:52:04.608Z,38
2019-02-16T12:53:06.713Z,37
2019-02-16T12:54:09.043Z,37
2019-02-16T12:55:15.840Z,37
2019-02-16T12:56:17.902Z,37
2019-02-16T12:57:19.941Z,36
2019-02-16T12:58:21.996Z,37
2019-02-16T12:59:24.440Z,37
2019-02-16T13:00:26.496Z,37
2019-02-16T13:01:28.535Z,37
2019-02-16T13:02:30.684Z,37
2019-02-16T13:03:32.738Z,38
2019-02-16T13:04:34.789Z,37
2019-02-16T13:05:36.851Z,38
2019-02-16T13:06:39.578Z,38
2019-02-16T13:07:41.664Z,38
2019-02-16T13:08:43.760Z,38
2019-02-16T13:09:45.888Z,40
2019-02-16T13:10:48.034Z,38
2019-02-16T13:11:50.138Z,38
2019-02-16T13:12:52.532Z,38
2019-02-16T13:13:54.925Z,38
2019-02-16T13:14:58.943Z,38
2019-02-16T13:16:01.385Z,38
2019-02-16T13:17:03.735Z,38
2019-02-16T13:18:05.791Z,37
2019-02-16T13:19:07.852Z,39
2019-02-16T13:20:10.186Z,38
2019-02-16T13:21:12.241Z,39
2019-02-16T13:22:14.963Z,38
2019-02-16T13:23:17.302Z,37
2019-02-16T13:24:19.354Z,36
2019-02-16T13:25:25.807Z,37
2019-02-16T13:26:27.864Z,38
2019-02-16T13:27:29.919Z,38
2019-02-16T13:28:31.983Z,37
2019-02-16T13:29:34.031Z,37
2019-02-16T13:30:36.091Z,37
2019-02-16T13:31:38.146Z,37
2019-02-16T13:32:40.191Z,37
2019-02-16T13:33:42.236Z,37
2019-02-16T13:34:44.301Z,37
2019-02-16T13:35:46.337Z,37
2019-02-16T13:36:48.393Z,37
2019-02-16T13:37:50.498Z,37
2019-02-16T13:38:52.924Z,37
2019-02-16T13:39:54.984Z,37
2019-02-16T13:40:57.045Z,39
2019-02-16T13:41:59.096Z,37
2019-02-16T13:43:01.137Z,38
2019-02-16T13:44:03.591Z,38
2019-02-16T13:45:05.658Z,38
2019-02-16T13:46:08.014Z,38
2019-02-16T13:47:10.757Z,38
2019-02-16T13:48:12.796Z,38
2019-02-16T13:49:14.846Z,37
2019-02-16T13:50:16.913Z,38
2019-02-16T13:51:19.244Z,39
2019-02-16T13:52:21.291Z,38
2019-02-16T13:53:23.620Z,38
2019-02-16T13:54:26.338Z,37
2019-02-16T13:55:37.194Z,37
2019-02-16T13:56:39.240Z,38
2019-02-16T13:57:41.303Z,37
2019-02-16T13:58:44.021Z,37
2019-02-16T13:59:46.058Z,37
2019-02-16T14:00:48.104Z,38
2019-02-16T14:01:50.159Z,39
2019-02-16T14:02:52.262Z,38
2019-02-16T14:03:54.320Z,38
2019-02-16T14:04:56.362Z,38
2019-02-16T14:05:58.401Z,39
2019-02-16T14:07:00.830Z,39
2019-02-16T14:08:02.888Z,38
2019-02-16T14:09:04.994Z,38
2019-02-16T14:10:07.324Z,38
2019-02-16T14:11:09.373Z,38
2019-02-16T14:12:11.408Z,38
2019-02-16T14:13:13.841Z,38
2019-02-16T14:14:15.889Z,39
2019-02-16T14:15:17.934Z,39
2019-02-16T14:16:20.348Z,39
2019-02-16T14:17:22.405Z,39
2019-02-16T14:18:24.449Z,40
2019-02-16T14:19:26.494Z,39
2019-02-16T14:20:28.551Z,39
2019-02-16T14:21:30.594Z,39
2019-02-16T14:22:33.047Z,39
2019-02-16T14:23:35.097Z,39
2019-02-16T14:24:37.163Z,39
2019-02-16T14:25:46.914Z,39
2019-02-16T14:26:48.967Z,41
2019-02-16T14:27:51.037Z,40
2019-02-16T14:28:53.081Z,39
2019-02-16T14:29:55.138Z,40
2019-02-16T14:30:57.173Z,39
2019-02-16T14:31:59.222Z,39
2019-02-16T14:33:01.255Z,39
2019-02-16T14:34:03.339Z,39
2019-02-16T14:35:05.392Z,40
2019-02-16T14:36:07.429Z,39
2019-02-16T14:37:09.737Z,40
2019-02-16T14:38:12.180Z,40
2019-02-16T14:39:14.223Z,40
2019-02-16T14:40:16.292Z,40
2019-02-16T14:41:18.366Z,40
2019-02-16T14:42:20.433Z,40
2019-02-16T14:43:22.484Z,40
2019-02-16T14:44:24.529Z,40
2019-02-16T14:45:26.578Z,40
2019-02-16T14:46:28.630Z,40
2019-02-16T14:47:30.674Z,41
2019-02-16T14:48:32.721Z,41
2019-02-16T14:49:34.749Z,41